Smithtown, New York
Current Conditions -  °F | °C
As of 2:56 AM on Friday 31 Oct 2014 (Local Time) from KISP Reporting Station
Overcast Overcast  
Wind Chill: 43°   Ceiling: 5000
Heat Index: 46°   Visibility: 10mi
Dew Point: 37°   Wind: 6mph
Humidity: 71%   Direction: 20°NNE
Pressure: 29.99"   Gusts: NA
Location:  40.85°N, 73.23°W
Report Text: KISP 310656Z AUTO 02005KT 10SM OVC050 08/03 A2999 RMK AO2 SLP155 T00780028
Loading
Personal Weather Stations






























Interactive Weather Map
Tropical Storm Tracking
New forecast layout! Learn more

10-Day Weather Forecast

Advertisements
Track Severe Weather on mobile